Time;durP1;ratioP1;P1;durP2;ratioP2;P2;SDS_P1;SDS_P2;PMS_P1;PMS_P2;Temp;Humidity;BMP_temperature;BMP_pressure;BME280_temperature;BME280_humidity;BME280_pressure;Samples;Min_cycle;Max_cycle;Signal;HPM_P1;HPM_P2
2023/12/12 00:00:35;;;;;;;5.93;2.17;;;8.70;99.90;;;;;;4964119;28;20062;-82
2023/12/12 00:03:01;;;;;;;0.55;0.55;;;8.60;99.90;;;;;;4967005;28;20034;-82
2023/12/12 00:05:27;;;;;;;0.55;0.55;;;8.40;99.90;;;;;;4964803;28;20479;-81
2023/12/12 00:07:53;;;;;;;0.60;0.52;;;8.30;99.90;;;;;;4948364;28;20046;-83
2023/12/12 00:10:20;;;;;;;0.68;0.68;;;8.20;99.90;;;;;;4967024;28;20030;-82
2023/12/12 00:12:46;;;;;;;0.85;0.85;;;8.10;99.90;;;;;;4972724;28;20031;-82
2023/12/12 00:15:12;;;;;;;1.50;1.40;;;8.10;99.90;;;;;;4984989;28;20031;-82
2023/12/12 00:17:39;;;;;;;0.32;0.32;;;8.10;99.90;;;;;;4980899;28;20419;-82
2023/12/12 00:20:08;;;;;;;0.60;0.60;;;8.00;99.90;;;;;;4961116;28;20046;-82
2023/12/12 00:22:35;;;;;;;0.85;0.82;;;8.00;99.90;;;;;;4960305;28;20043;-82
2023/12/12 00:25:01;;;;;;;2.53;1.38;;;8.10;99.90;;;;;;4965802;28;20035;-82
2023/12/12 00:27:27;;;;;;;0.95;0.95;;;8.00;1.00;;;;;;4962896;28;20042;-82
2023/12/12 00:29:55;;;;;;;1.80;0.70;;;8.00;99.90;;;;;;4958229;28;20042;-82
2023/12/12 00:32:21;;;;;;;1.73;1.63;;;8.00;1.00;;;;;;4962176;28;20047;-82
2023/12/12 00:34:47;;;;;;;0.40;0.40;;;7.90;1.00;;;;;;4964987;28;20367;-82
2023/12/12 00:37:14;;;;;;;0.20;0.20;;;7.90;1.00;;;;;;4963943;28;20365;-82
2023/12/12 00:39:40;;;;;;;2.42;1.02;;;7.80;1.00;;;;;;4962427;28;20031;-82
2023/12/12 00:42:06;;;;;;;1.65;0.28;;;7.80;1.00;;;;;;4943451;28;20050;-82
2023/12/12 00:44:36;;;;;;;1.40;0.60;;;7.70;1.00;;;;;;4964188;28;20039;-81
2023/12/12 00:47:02;;;;;;;0.43;0.32;;;7.70;1.00;;;;;;4964719;28;20050;-82
2023/12/12 00:49:29;;;;;;;24.25;0.80;;;7.60;1.00;;;;;;4966781;28;20039;-82
2023/12/12 00:51:55;;;;;;;0.43;0.40;;;7.60;1.00;;;;;;4961588;28;20034;-82
2023/12/12 00:54:21;;;;;;;0.55;0.55;;;7.50;1.00;;;;;;4957999;28;20039;-82
2023/12/12 00:56:47;;;;;;;0.20;0.20;;;7.40;1.00;;;;;;4964178;28;20035;-82
2023/12/12 00:59:14;;;;;;;0.47;0.47;;;7.30;1.00;;;;;;4966296;28;20046;-82
2023/12/12 01:01:40;;;;;;;2.05;1.00;;;7.20;1.00;;;;;;4959897;28;20062;-82
2023/12/12 01:04:10;;;;;;;1.05;0.95;;;7.10;1.00;;;;;;4957834;28;20031;-82
2023/12/12 01:06:36;;;;;;;0.43;0.43;;;7.00;1.00;;;;;;4965257;28;20384;-82
2023/12/12 01:09:02;;;;;;;0.88;0.88;;;6.90;1.00;;;;;;4966000;28;20045;-82
2023/12/12 01:11:28;;;;;;;0.22;0.22;;;6.90;1.00;;;;;;4963396;28;20026;-82
2023/12/12 01:13:54;;;;;;;14.20;2.13;;;6.90;1.00;;;;;;4959897;28;20023;-82
2023/12/12 01:16:21;;;;;;;2.45;1.85;;;6.80;6.40;;;;;;4964301;28;20043;-82
2023/12/12 01:18:48;;;;;;;0.25;0.25;;;6.80;26.20;;;;;;4963770;28;20384;-82
2023/12/12 01:21:14;;;;;;;1.00;0.85;;;6.80;45.30;;;;;;4963964;28;20392;-83
2023/12/12 01:23:51;;;;;;;0.10;0.10;;;6.80;80.40;;;;;;4957259;28;20038;-82
2023/12/12 01:26:19;;;;;;;0.30;0.30;;;6.80;97.50;;;;;;4962774;28;20388;-82
2023/12/12 01:28:45;;;;;;;1.65;0.60;;;6.80;99.90;;;;;;4964647;28;20396;-82
2023/12/12 01:31:12;;;;;;;0.75;0.73;;;6.80;99.90;;;;;;4967447;28;20385;-82
2023/12/12 01:33:38;;;;;;;0.50;0.50;;;6.90;99.90;;;;;;4944219;28;20047;-82
2023/12/12 01:36:05;;;;;;;1.08;0.73;;;6.90;99.90;;;;;;4962567;28;20461;-82
2023/12/12 01:38:32;;;;;;;1.05;0.50;;;6.90;99.90;;;;;;4967686;28;20046;-82
2023/12/12 01:40:58;;;;;;;1.17;1.00;;;6.90;99.90;;;;;;4969596;28;20042;-82
2023/12/12 01:43:31;;;;;;;0.63;0.55;;;6.90;99.90;;;;;;4964504;28;20400;-81
2023/12/12 01:46:03;;;;;;;0.10;0.10;;;6.90;99.90;;;;;;4963576;28;20042;-82
2023/12/12 01:48:30;;;;;;;2.38;2.17;;;6.90;99.90;;;;;;4969786;28;20047;-82
2023/12/12 01:50:57;;;;;;;0.10;0.10;;;6.80;99.90;;;;;;4966240;28;20038;-83
2023/12/12 01:53:37;;;;;;;0.28;0.28;;;6.70;99.90;;;;;;4967621;28;20042;-83
2023/12/12 01:56:05;;;;;;;0.15;0.15;;;6.50;97.20;;;;;;4962490;28;20352;-83
2023/12/12 01:58:33;;;;;;;0.43;0.43;;;6.40;99.90;;;;;;4949196;28;20042;-84
2023/12/12 02:00:59;;;;;;;0.32;0.32;;;6.20;99.90;;;;;;4951233;28;20039;-84
2023/12/12 02:03:27;;;;;;;2.40;0.95;;;6.10;99.90;;;;;;4967740;28;20042;-84
2023/12/12 02:05:58;;;;;;;0.63;0.63;;;6.00;99.90;;;;;;4938971;28;20229;-85
2023/12/12 02:08:27;;;;;;;0.52;0.52;;;5.90;99.90;;;;;;4961995;28;20078;-84
2023/12/12 02:10:54;;;;;;;0.30;0.30;;;5.90;99.90;;;;;;4966794;28;20035;-84
2023/12/12 02:13:20;;;;;;;1.13;0.98;;;5.80;99.90;;;;;;4966740;28;20402;-83
2023/12/12 02:15:47;;;;;;;0.28;0.28;;;5.70;99.90;;;;;;4964470;28;20065;-83
2023/12/12 02:18:14;;;;;;;0.20;0.20;;;5.60;99.90;;;;;;4961745;28;20032;-84
2023/12/12 02:20:40;;;;;;;3.03;1.40;;;5.60;99.90;;;;;;4967661;28;20042;-83
2023/12/12 02:23:07;;;;;;;0.15;0.15;;;5.50;1.00;;;;;;4966620;28;20042;-84
2023/12/12 02:25:34;;;;;;;0.20;0.20;;;5.60;1.00;;;;;;4965871;28;20361;-81
2023/12/12 02:28:02;;;;;;;0.63;0.63;;;5.60;1.00;;;;;;4962056;28;20396;-83
2023/12/12 02:30:33;;;;;;;0.68;0.68;;;5.50;1.00;;;;;;4965452;28;20043;-83
2023/12/12 02:32:59;;;;;;;;;;;5.60;1.00;;;;;;4966782;28;20499;-84
2023/12/12 02:35:25;;;;;;;0.50;0.50;;;5.50;1.00;;;;;;4966767;28;19906;-83
2023/12/12 02:37:51;;;;;;;15.02;1.95;;;5.50;1.00;;;;;;4965140;28;20058;-84
2023/12/12 02:40:18;;;;;;;1.17;1.00;;;5.50;1.00;;;;;;4958567;28;20508;-83
2023/12/12 02:42:44;;;;;;;0.10;0.10;;;5.50;1.00;;;;;;4967932;28;20046;-83
2023/12/12 02:45:11;;;;;;;13.70;3.63;;;5.50;1.00;;;;;;4964412;28;20416;-84
2023/12/12 02:47:37;;;;;;;6.22;2.25;;;5.50;1.00;;;;;;4964226;28;20547;-83
2023/12/12 02:50:05;;;;;;;0.20;0.20;;;5.50;5.30;;;;;;4963361;28;20134;-84
2023/12/12 02:52:31;;;;;;;4.70;1.85;;;5.60;73.70;;;;;;4968935;28;20039;-84
2023/12/12 02:54:57;;;;;;;0.60;0.60;;;5.60;56.00;;;;;;4965829;28;20396;-84
2023/12/12 02:57:24;;;;;;;5.15;0.93;;;5.70;21.90;;;;;;4966975;28;20037;-84
2023/12/12 02:59:50;;;;;;;1.80;1.27;;;5.80;1.00;;;;;;4962975;28;20043;-84
2023/12/12 03:02:16;;;;;;;1.33;0.82;;;5.70;1.00;;;;;;4965543;28;20050;-84
2023/12/12 03:04:46;;;;;;;0.45;0.45;;;5.70;1.00;;;;;;4947777;28;20053;-84
2023/12/12 03:07:12;;;;;;;0.52;0.52;;;5.70;1.00;;;;;;4968298;28;20098;-84
2023/12/12 03:09:39;;;;;;;0.82;0.82;;;5.60;1.00;;;;;;4965264;28;20035;-82
2023/12/12 03:12:05;;;;;;;0.75;0.57;;;5.70;1.00;;;;;;4960310;28;20389;-84
2023/12/12 03:14:33;;;;;;;1.05;0.85;;;5.60;1.00;;;;;;4961985;28;20054;-80
2023/12/12 03:17:00;;;;;;;0.52;0.52;;;5.60;1.00;;;;;;4957917;28;20476;-84
2023/12/12 03:19:26;;;;;;;0.30;0.30;;;5.70;1.00;;;;;;4963915;28;20039;-84
2023/12/12 03:21:52;;;;;;;0.68;0.68;;;5.60;1.00;;;;;;4960237;28;20035;-84
2023/12/12 03:24:18;;;;;;;0.15;0.15;;;5.60;1.00;;;;;;4964681;28;20406;-84
2023/12/12 03:26:44;;;;;;;2.40;0.93;;;5.60;1.00;;;;;;4964581;28;20476;-84
2023/12/12 03:29:11;;;;;;;0.20;0.20;;;5.60;1.00;;;;;;4967526;28;20042;-84
2023/12/12 03:31:38;;;;;;;0.75;0.52;;;5.50;1.00;;;;;;4965998;28;20030;-83
2023/12/12 03:34:05;;;;;;;0.65;0.65;;;5.50;1.00;;;;;;4973809;28;20582;-83
2023/12/12 03:36:32;;;;;;;1.55;0.43;;;5.50;1.00;;;;;;4966002;28;20031;-84
2023/12/12 03:38:58;;;;;;;0.95;0.75;;;5.60;1.00;;;;;;4966759;28;20755;-84
2023/12/12 03:41:24;;;;;;;3.33;2.15;;;5.60;1.00;;;;;;4971345;28;20046;-84
2023/12/12 03:43:50;;;;;;;0.20;0.20;;;5.60;5.40;;;;;;4974311;28;20042;-84
2023/12/12 03:46:18;;;;;;;3.17;2.47;;;5.70;2.10;;;;;;4974959;28;20488;-84
2023/12/12 03:48:45;;;;;;;2.60;1.30;;;5.70;2.50;;;;;;4966391;28;20047;-84
2023/12/12 03:51:11;;;;;;;0.57;0.57;;;5.80;1.00;;;;;;4964454;28;20046;-84
2023/12/12 03:53:39;;;;;;;2.65;1.27;;;5.70;1.00;;;;;;4960508;28;20042;-83
2023/12/12 03:56:08;;;;;;;0.20;0.20;;;5.70;1.00;;;;;;4960814;28;20508;-84
2023/12/12 03:58:35;;;;;;;1.45;0.70;;;5.70;1.00;;;;;;4948729;28;20034;-83
2023/12/12 04:01:01;;;;;;;0.85;0.82;;;5.80;85.30;;;;;;4962289;28;20884;-84
2023/12/12 04:03:27;;;;;;;3.53;1.85;;;5.70;81.70;;;;;;4946835;28;20042;-84
2023/12/12 04:05:53;;;;;;;0.38;0.38;;;5.80;99.90;;;;;;4959452;28;20028;-84
2023/12/12 04:08:19;;;;;;;2.42;1.77;;;5.80;99.90;;;;;;4961921;28;20032;-82
2023/12/12 04:10:46;;;;;;;0.47;0.45;;;5.70;46.10;;;;;;4965201;28;20469;-84
2023/12/12 04:13:12;;;;;;;0.65;0.65;;;5.70;21.00;;;;;;4967089;28;20042;-84
2023/12/12 04:15:38;;;;;;;0.10;0.10;;;5.70;8.70;;;;;;4963238;28;20034;-83
2023/12/12 04:18:04;;;;;;;3.17;1.92;;;5.60;5.80;;;;;;4960346;28;20047;-83
2023/12/12 04:20:30;;;;;;;4.47;1.75;;;5.50;12.20;;;;;;4964297;28;20051;-84
2023/12/12 04:22:56;;;;;;;3.60;1.60;;;5.50;36.80;;;;;;4963586;28;20031;-84
2023/12/12 04:25:23;;;;;;;3.63;1.67;;;5.60;43.40;;;;;;4959978;28;20125;-83
2023/12/12 04:27:49;;;;;;;0.30;0.30;;;5.60;48.90;;;;;;4962952;28;20030;-84
2023/12/12 04:30:15;;;;;;;0.35;0.35;;;5.60;50.20;;;;;;4966815;28;20039;-84
2023/12/12 04:32:42;;;;;;;1.48;1.38;;;5.60;22.60;;;;;;4974475;28;20026;-82
2023/12/12 04:35:10;;;;;;;6.72;1.48;;;5.60;1.00;;;;;;4990493;28;20027;-82
2023/12/12 04:37:37;;;;;;;2.22;2.03;;;5.70;1.00;;;;;;4984893;28;20031;-82
2023/12/12 04:40:04;;;;;;;5.70;4.13;;;5.70;1.00;;;;;;4975138;28;20195;-84
2023/12/12 04:42:30;;;;;;;3.45;3.15;;;5.70;1.00;;;;;;4964902;28;20031;-84
2023/12/12 04:44:56;;;;;;;1.10;0.98;;;5.70;1.00;;;;;;4966966;28;20031;-84
2023/12/12 04:47:23;;;;;;;3.97;3.67;;;5.70;1.00;;;;;;4963441;28;20047;-85
2023/12/12 04:49:50;;;;;;;1.25;1.17;;;5.70;1.00;;;;;;4963108;28;20039;-84
2023/12/12 04:52:17;;;;;;;4.25;3.85;;;5.70;1.00;;;;;;4967324;28;20042;-85
2023/12/12 04:54:43;;;;;;;1.40;1.30;;;5.80;56.40;;;;;;4966194;28;20027;-81
2023/12/12 04:57:09;;;;;;;2.70;2.20;;;5.90;99.90;;;;;;4960529;28;20027;-84
2023/12/12 04:59:35;;;;;;;4.05;1.50;;;5.90;99.90;;;;;;4956785;28;20035;-85
2023/12/12 05:02:01;;;;;;;6.95;2.70;;;6.00;99.90;;;;;;4966520;28;20465;-85
2023/12/12 05:04:28;;;;;;;0.52;0.52;;;6.10;99.90;;;;;;4966525;28;20035;-85
2023/12/12 05:06:54;;;;;;;2.45;1.67;;;6.10;99.90;;;;;;4963546;28;20026;-84
2023/12/12 05:09:20;;;;;;;2.33;2.08;;;6.20;99.90;;;;;;4956556;28;20449;-79
2023/12/12 05:11:47;;;;;;;0.43;0.43;;;6.30;99.90;;;;;;4966209;28;20392;-79
2023/12/12 05:14:14;;;;;;;1.00;0.90;;;6.40;99.90;;;;;;4966161;28;20473;-79
2023/12/12 05:16:40;;;;;;;0.88;0.88;;;6.40;99.90;;;;;;4968230;28;20053;-78
2023/12/12 05:19:06;;;;;;;0.80;0.80;;;6.40;99.90;;;;;;4962237;28;20026;-80
2023/12/12 05:21:33;;;;;;;8.95;3.17;;;6.40;99.90;;;;;;4967393;28;20058;-80
2023/12/12 05:23:59;;;;;;;0.63;0.63;;;6.50;99.90;;;;;;4967192;28;21468;-79
2023/12/12 05:26:25;;;;;;;0.43;0.43;;;6.50;99.90;;;;;;4970641;28;20046;-79
2023/12/12 05:28:52;;;;;;;5.13;4.63;;;6.50;99.90;;;;;;4963895;28;20039;-79
2023/12/12 05:31:18;;;;;;;2.20;1.92;;;6.60;99.90;;;;;;4964005;28;20046;-79
2023/12/12 05:33:45;;;;;;;4.45;1.80;;;6.60;99.90;;;;;;4966510;28;20040;-77
2023/12/12 05:36:11;;;;;;;1.33;1.23;;;6.50;99.90;;;;;;4968353;28;20046;-79
2023/12/12 05:38:37;;;;;;;11.60;1.70;;;6.50;99.90;;;;;;4965937;28;20031;-79
2023/12/12 05:41:03;;;;;;;11.82;2.20;;;6.50;99.90;;;;;;4962990;28;20801;-79
2023/12/12 05:43:30;;;;;;;4.03;1.20;;;6.50;99.90;;;;;;4966611;28;20464;-78
2023/12/12 05:45:57;;;;;;;0.38;0.38;;;6.50;99.90;;;;;;4965038;28;20412;-78
2023/12/12 05:48:23;;;;;;;4.22;1.00;;;6.60;99.90;;;;;;4963549;28;20043;-81
2023/12/12 05:50:49;;;;;;;4.55;3.95;;;6.60;99.90;;;;;;4963579;28;20047;-78
2023/12/12 05:53:15;;;;;;;3.28;2.35;;;6.70;99.90;;;;;;4966497;28;20468;-78
2023/12/12 05:55:42;;;;;;;10.05;3.00;;;6.70;99.90;;;;;;4965767;28;20416;-78
2023/12/12 05:58:08;;;;;;;2.83;2.15;;;6.80;99.90;;;;;;4966995;28;20050;-79
2023/12/12 06:00:34;;;;;;;1.67;1.42;;;6.80;99.90;;;;;;4966804;28;20039;-78
2023/12/12 06:03:01;;;;;;;3.97;3.03;;;6.70;99.90;;;;;;4962931;28;20051;-79
2023/12/12 06:05:28;;;;;;;2.03;1.80;;;6.70;99.90;;;;;;4965183;28;20038;-79
2023/12/12 06:07:54;;;;;;;1.00;0.95;;;6.70;99.90;;;;;;4965693;28;20038;-78
2023/12/12 06:10:20;;;;;;;0.57;0.55;;;6.70;99.90;;;;;;4968262;28;20049;-77
2023/12/12 06:12:46;;;;;;;19.10;2.05;;;6.70;99.90;;;;;;4966373;28;20038;-76
2023/12/12 06:15:12;;;;;;;1.42;1.17;;;6.70;99.90;;;;;;4963601;28;20038;-77
2023/12/12 06:17:39;;;;;;;2.00;1.83;;;6.70;99.90;;;;;;4968760;28;20035;-77
2023/12/12 06:20:06;;;;;;;1.52;1.42;;;6.70;99.90;;;;;;4966118;28;20225;-78
2023/12/12 06:22:34;;;;;;;3.67;1.23;;;6.70;99.90;;;;;;4962596;28;20027;-77
2023/12/12 06:25:00;;;;;;;1.83;1.35;;;6.70;99.90;;;;;;4961515;28;20042;-78
2023/12/12 06:27:26;;;;;;;2.08;1.48;;;6.80;99.90;;;;;;4965506;28;20392;-77
2023/12/12 06:29:52;;;;;;;2.78;1.35;;;6.80;99.90;;;;;;4967301;28;20035;-76
2023/12/12 06:32:19;;;;;;;3.13;2.13;;;6.90;99.90;;;;;;4967166;28;20089;-77
2023/12/12 06:34:46;;;;;;;0.50;0.50;;;6.90;99.90;;;;;;4963094;28;20039;-75
2023/12/12 06:37:12;;;;;;;0.10;0.10;;;6.90;99.90;;;;;;4960045;28;20039;-77
2023/12/12 06:39:38;;;;;;;1.15;1.10;;;6.90;99.90;;;;;;4968083;28;20429;-78
2023/12/12 06:42:05;;;;;;;0.47;0.47;;;6.80;99.90;;;;;;4965646;28;20497;-78
2023/12/12 06:44:31;;;;;;;8.88;1.75;;;6.80;99.90;;;;;;4966776;28;20031;-78
2023/12/12 06:46:58;;;;;;;0.40;0.40;;;6.80;99.90;;;;;;4941840;28;20055;-77
2023/12/12 06:49:24;;;;;;;0.55;0.55;;;6.80;99.90;;;;;;4966072;28;20047;-78
2023/12/12 06:51:50;;;;;;;0.45;0.45;;;6.80;99.90;;;;;;4965557;28;20038;-78
2023/12/12 06:54:17;;;;;;;0.73;0.50;;;6.70;99.90;;;;;;4966148;28;20031;-78
2023/12/12 06:56:43;;;;;;;0.50;0.50;;;6.70;99.90;;;;;;4960937;28;20050;-78
2023/12/12 06:59:09;;;;;;;1.20;1.10;;;6.60;99.90;;;;;;4964286;28;20038;-79
2023/12/12 07:01:35;;;;;;;1.23;1.15;;;6.60;99.90;;;;;;4967701;28;20045;-79
2023/12/12 07:04:01;;;;;;;1.75;1.10;;;6.70;99.90;;;;;;4967178;28;20261;-79
2023/12/12 07:06:28;;;;;;;0.35;0.35;;;6.70;99.90;;;;;;4968767;28;20045;-78
2023/12/12 07:08:54;;;;;;;0.65;0.65;;;6.80;99.90;;;;;;4957925;28;20058;-78
2023/12/12 07:11:21;;;;;;;0.75;0.75;;;6.80;99.90;;;;;;4968530;28;20043;-79
2023/12/12 07:13:47;;;;;;;1.48;1.38;;;6.90;99.90;;;;;;4968670;28;20026;-77
2023/12/12 07:16:13;;;;;;;0.30;0.30;;;7.00;99.90;;;;;;4963490;28;20035;-79
2023/12/12 07:18:40;;;;;;;1.95;1.10;;;7.10;99.90;;;;;;4963151;28;20034;-77
2023/12/12 07:21:06;;;;;;;1.88;1.75;;;7.10;99.90;;;;;;4962293;28;20042;-74
2023/12/12 07:23:33;;;;;;;0.85;0.63;;;7.20;99.90;;;;;;4965182;28;20357;-74
2023/12/12 07:25:59;;;;;;;2.35;1.55;;;7.20;99.90;;;;;;4966093;28;20031;-75
2023/12/12 07:28:26;;;;;;;0.68;0.65;;;7.30;99.90;;;;;;4956302;28;20043;-74
2023/12/12 07:30:55;;;;;;;0.35;0.35;;;7.30;99.90;;;;;;4962884;28;20054;-74
2023/12/12 07:33:21;;;;;;;0.82;0.75;;;7.40;99.90;;;;;;4965813;28;20039;-74
2023/12/12 07:35:48;;;;;;;7.28;1.48;;;7.40;95.60;;;;;;4967440;28;20479;-74
2023/12/12 07:38:16;;;;;;;1.02;0.95;;;7.50;70.80;;;;;;4959808;28;20031;-74
2023/12/12 07:40:43;;;;;;;5.25;3.08;;;7.50;43.30;;;;;;4960283;28;20441;-74
2023/12/12 07:43:10;;;;;;;5.38;1.27;;;7.60;23.20;;;;;;4946300;28;20254;-74
2023/12/12 07:45:36;;;;;;;0.52;0.52;;;7.60;15.80;;;;;;4967044;28;20049;-74
2023/12/12 07:48:03;;;;;;;6.72;3.45;;;7.60;43.50;;;;;;4961049;28;20062;-74
2023/12/12 07:50:29;;;;;;;2.90;2.67;;;7.70;78.10;;;;;;4962113;28;20027;-74
2023/12/12 07:52:55;;;;;;;5.07;3.58;;;7.60;99.90;;;;;;4964111;28;20055;-74
2023/12/12 07:55:21;;;;;;;1.35;1.25;;;7.70;99.90;;;;;;4967378;28;20360;-74
2023/12/12 07:57:47;;;;;;;1.13;1.02;;;7.70;99.90;;;;;;4964168;28;20461;-74
2023/12/12 08:00:14;;;;;;;0.95;0.82;;;7.70;99.90;;;;;;4962010;28;20457;-74
2023/12/12 08:02:40;;;;;;;1.08;0.98;;;7.70;99.90;;;;;;4963762;28;20046;-74
2023/12/12 08:05:06;;;;;;;1.42;1.33;;;7.70;99.90;;;;;;4964884;28;20388;-75
2023/12/12 08:07:32;;;;;;;1.25;1.15;;;7.70;99.90;;;;;;4964385;28;20042;-74
2023/12/12 08:09:59;;;;;;;3.42;1.95;;;7.80;99.90;;;;;;4961684;28;20046;-74
2023/12/12 08:12:25;;;;;;;1.17;0.90;;;7.80;99.90;;;;;;4959474;28;20051;-75
2023/12/12 08:14:55;;;;;;;1.02;1.02;;;7.80;99.90;;;;;;4961679;28;20050;-75
2023/12/12 08:17:21;;;;;;;0.32;0.32;;;7.90;99.90;;;;;;4965136;28;20396;-74
2023/12/12 08:19:47;;;;;;;0.40;0.40;;;7.90;99.90;;;;;;4962598;28;20362;-74
2023/12/12 08:22:14;;;;;;;0.68;0.68;;;8.00;99.90;;;;;;4959006;28;20039;-74
2023/12/12 08:24:40;;;;;;;2.58;2.08;;;8.10;99.90;;;;;;4961535;28;20039;-74
2023/12/12 08:27:07;;;;;;;1.38;1.02;;;8.10;99.90;;;;;;4964046;28;20035;-74
2023/12/12 08:29:33;;;;;;;0.85;0.85;;;8.10;99.90;;;;;;4965020;28;20035;-74
2023/12/12 08:31:59;;;;;;;0.30;0.30;;;8.20;99.90;;;;;;4963527;28;20050;-74
2023/12/12 08:34:26;;;;;;;0.40;0.40;;;8.20;99.90;;;;;;4962149;28;20038;-74
2023/12/12 08:36:52;;;;;;;0.68;0.68;;;8.30;99.90;;;;;;4959705;28;20511;-74
2023/12/12 08:39:18;;;;;;;0.65;0.65;;;8.30;99.90;;;;;;4965808;28;20043;-74
2023/12/12 08:41:44;;;;;;;1.58;0.90;;;8.50;99.90;;;;;;4966812;28;20040;-74
2023/12/12 08:44:11;;;;;;;0.85;0.85;;;8.60;99.90;;;;;;4966010;28;20408;-74
2023/12/12 08:46:37;;;;;;;1.35;1.25;;;8.60;99.90;;;;;;4966524;28;20419;-74
2023/12/12 08:49:03;;;;;;;0.40;0.40;;;8.60;99.90;;;;;;4968507;28;20041;-74
2023/12/12 08:51:30;;;;;;;0.20;0.20;;;8.50;99.90;;;;;;4969010;28;20043;-74
2023/12/12 08:53:58;;;;;;;0.70;0.70;;;8.50;99.90;;;;;;4964072;28;20411;-74
2023/12/12 08:56:25;;;;;;;0.70;0.68;;;8.60;99.90;;;;;;4964110;28;20046;-74
2023/12/12 08:58:51;;;;;;;1.08;1.02;;;8.60;99.90;;;;;;4968001;28;20373;-74
2023/12/12 09:01:18;;;;;;;1.67;1.58;;;8.60;99.90;;;;;;4969006;28;20039;-74
2023/12/12 09:03:44;;;;;;;1.45;1.35;;;8.60;99.90;;;;;;4968374;28;20042;-74
2023/12/12 09:06:11;;;;;;;0.50;0.50;;;8.60;99.90;;;;;;4962874;28;20484;-74
2023/12/12 09:08:41;;;;;;;0.38;0.38;;;8.60;99.90;;;;;;4938058;28;20027;-74
2023/12/12 09:11:12;;;;;;;0.77;0.77;;;8.60;99.90;;;;;;4962197;28;20038;-74
2023/12/12 09:13:41;;;;;;;0.52;0.52;;;8.60;99.90;;;;;;4963049;28;20274;-74
2023/12/12 09:16:08;;;;;;;1.67;0.63;;;8.50;99.90;;;;;;4963871;28;20039;-74
2023/12/12 09:18:34;;;;;;;1.02;1.02;;;8.60;99.90;;;;;;4965429;28;20035;-74
2023/12/12 09:21:00;;;;;;;0.30;0.30;;;8.60;99.90;;;;;;4969185;28;20043;-74
2023/12/12 09:23:30;;;;;;;0.43;0.43;;;8.50;99.90;;;;;;4967140;28;20031;-73
2023/12/12 09:25:57;;;;;;;0.80;0.70;;;8.60;99.90;;;;;;4966127;28;20046;-74
2023/12/12 09:28:23;;;;;;;1.38;0.98;;;8.60;99.90;;;;;;4963053;28;20031;-74
2023/12/12 09:30:49;;;;;;;1.55;0.98;;;8.60;99.90;;;;;;4968301;28;20035;-74
2023/12/12 09:33:15;;;;;;;0.68;0.63;;;8.60;99.90;;;;;;4965307;28;20035;-74
2023/12/12 09:35:41;;;;;;;0.55;0.55;;;8.60;99.90;;;;;;4966194;28;20061;-74
2023/12/12 09:38:07;;;;;;;0.20;0.20;;;8.60;99.90;;;;;;4962586;28;20043;-74
2023/12/12 09:40:36;;;;;;;1.10;1.10;;;8.60;99.90;;;;;;4967713;28;20035;-74
2023/12/12 09:43:05;;;;;;;2.30;2.00;;;8.60;99.90;;;;;;4965910;28;20043;-74
2023/12/12 09:45:32;;;;;;;1.08;0.98;;;8.60;99.90;;;;;;4967205;28;20034;-74
2023/12/12 09:47:58;;;;;;;1.55;0.80;;;8.60;99.90;;;;;;4962729;28;20046;-74
2023/12/12 09:50:26;;;;;;;1.35;1.25;;;8.60;99.90;;;;;;4959234;28;20027;-74
2023/12/12 09:52:53;;;;;;;0.55;0.55;;;8.70;99.90;;;;;;4967354;28;20042;-74
2023/12/12 09:55:24;;;;;;;0.55;0.40;;;8.70;99.90;;;;;;4967580;28;20027;-74
2023/12/12 09:57:50;;;;;;;7.90;1.13;;;8.70;99.90;;;;;;4967394;28;20034;-74
2023/12/12 10:00:18;;;;;;;0.80;0.80;;;8.70;99.90;;;;;;4962137;28;20046;-74
2023/12/12 10:02:44;;;;;;;0.68;0.68;;;8.80;99.90;;;;;;4966278;28;20434;-74
2023/12/12 10:05:12;;;;;;;0.20;0.20;;;8.80;99.90;;;;;;4966670;28;20039;-74
2023/12/12 10:07:40;;;;;;;1.23;0.93;;;8.80;99.90;;;;;;4966888;28;20031;-74
2023/12/12 10:10:11;;;;;;;5.30;1.25;;;8.80;99.90;;;;;;4961330;28;20038;-74
2023/12/12 10:12:37;;;;;;;1.45;1.20;;;8.80;99.90;;;;;;4964457;28;20465;-74
2023/12/12 10:15:21;;;;;;;0.32;0.32;;;8.90;99.90;;;;;;4965351;28;20050;-74
2023/12/12 10:17:48;;;;;;;0.70;0.70;;;8.90;99.90;;;;;;4964770;28;20039;-74
2023/12/12 10:20:25;;;;;;;0.50;0.50;;;8.90;99.90;;;;;;4962416;28;20043;-74
2023/12/12 10:22:53;;;;;;;0.70;0.52;;;9.00;99.90;;;;;;4962092;28;20039;-74
2023/12/12 10:25:22;;;;;;;3.15;2.17;;;9.00;99.90;;;;;;4967072;28;20031;-74
2023/12/12 10:27:52;;;;;;;1.42;0.75;;;9.00;99.90;;;;;;4964814;28;20081;-74
2023/12/12 10:30:20;;;;;;;0.30;0.28;;;9.10;99.90;;;;;;4966122;28;20039;-74
2023/12/12 10:32:51;;;;;;;0.30;0.30;;;9.10;99.90;;;;;;4962177;28;20050;-74
2023/12/12 10:35:24;;;;;;;0.57;0.45;;;9.10;99.90;;;;;;4966318;28;20043;-74
2023/12/12 10:37:52;;;;;;;1.90;1.77;;;9.20;99.90;;;;;;4966732;28;20049;-74
2023/12/12 10:40:21;;;;;;;0.82;0.73;;;9.20;99.90;;;;;;4961931;28;20034;-73
2023/12/12 10:42:50;;;;;;;0.30;0.30;;;9.20;99.90;;;;;;4961529;28;20062;-73
2023/12/12 10:45:17;;;;;;;2.38;0.98;;;9.30;99.90;;;;;;4964378;28;20874;-73
2023/12/12 10:47:47;;;;;;;0.93;0.70;;;9.30;99.90;;;;;;4966384;28;20055;-73
2023/12/12 10:50:15;;;;;;;32.70;2.60;;;9.30;99.90;;;;;;4964675;28;20043;-73
2023/12/12 10:52:43;;;;;;;2.42;0.85;;;9.40;99.90;;;;;;4962797;28;20760;-73
2023/12/12 10:55:11;;;;;;;0.38;0.38;;;9.40;99.90;;;;;;4960317;28;20031;-73
2023/12/12 10:57:42;;;;;;;0.65;0.65;;;9.50;99.90;;;;;;4967649;28;20457;-73
2023/12/12 11:00:16;;;;;;;0.75;0.75;;;9.50;99.90;;;;;;4966070;28;20390;-74
2023/12/12 11:02:43;;;;;;;0.45;0.32;;;9.50;99.90;;;;;;4961135;28;20043;-73
2023/12/12 11:05:12;;;;;;;0.75;0.75;;;9.50;99.90;;;;;;4961011;28;20046;-73
2023/12/12 11:07:39;;;;;;;0.90;0.90;;;9.50;99.90;;;;;;4966075;28;20031;-73
2023/12/12 11:10:11;;;;;;;1.60;1.48;;;9.40;99.90;;;;;;4966205;28;20034;-73
2023/12/12 11:12:50;;;;;;;2.65;2.42;;;9.40;99.90;;;;;;4966376;28;20042;-74
2023/12/12 11:15:18;;;;;;;4.50;2.15;;;9.40;99.90;;;;;;4962565;28;20039;-75
2023/12/12 11:17:46;;;;;;;0.93;0.93;;;9.40;99.90;;;;;;4962181;28;20061;-75
2023/12/12 11:20:19;;;;;;;1.10;1.02;;;9.40;99.90;;;;;;4964736;28;20046;-75
2023/12/12 11:22:48;;;;;;;0.65;0.63;;;9.40;99.90;;;;;;4962045;28;20043;-75
2023/12/12 11:25:21;;;;;;;1.13;0.32;;;9.30;99.90;;;;;;4959817;28;20052;-75
2023/12/12 11:27:52;;;;;;;0.60;0.60;;;9.30;99.90;;;;;;4962851;28;20034;-75
2023/12/12 11:30:20;;;;;;;0.43;0.43;;;9.30;99.90;;;;;;4967409;28;20035;-75
2023/12/12 11:32:47;;;;;;;1.00;0.93;;;9.20;99.90;;;;;;4964278;28;20042;-75
2023/12/12 11:35:31;;;;;;;1.35;0.93;;;9.20;99.90;;;;;;4961543;28;20384;-74
2023/12/12 11:38:00;;;;;;;0.95;0.90;;;9.10;99.90;;;;;;4962973;28;20496;-74
2023/12/12 11:40:27;;;;;;;0.30;0.30;;;9.10;99.90;;;;;;4967221;28;20031;-74
2023/12/12 11:42:59;;;;;;;0.20;0.20;;;9.10;99.90;;;;;;4963924;28;20054;-74
2023/12/12 11:45:32;;;;;;;2.53;1.73;;;9.00;99.90;;;;;;4964062;28;20035;-74
2023/12/12 11:48:00;;;;;;;0.57;0.57;;;9.00;99.90;;;;;;4961578;28;20062;-74
2023/12/12 11:50:26;;;;;;;0.75;0.75;;;9.00;99.90;;;;;;4966320;28;20039;-75
2023/12/12 11:52:53;;;;;;;0.93;0.85;;;9.00;99.90;;;;;;4964367;28;20031;-74
2023/12/12 11:55:20;;;;;;;0.20;0.20;;;8.90;99.90;;;;;;4962353;28;20354;-75
2023/12/12 11:57:47;;;;;;;0.22;0.22;;;8.90;99.90;;;;;;4964449;28;20043;-75
2023/12/12 12:00:14;;;;;;;0.10;0.10;;;8.90;99.90;;;;;;4965542;28;20038;-75
2023/12/12 12:02:41;;;;;;;0.30;0.30;;;8.90;99.90;;;;;;4965299;28;20039;-76
2023/12/12 12:05:07;;;;;;;3.40;0.68;;;8.90;99.90;;;;;;4962586;28;20389;-75
2023/12/12 12:07:34;;;;;;;0.50;0.40;;;8.90;99.90;;;;;;4960670;28;20031;-76
2023/12/12 12:10:00;;;;;;;8.23;2.92;;;8.80;99.90;;;;;;4962292;28;20031;-75
2023/12/12 12:12:26;;;;;;;10.98;8.05;;;8.80;99.90;;;;;;4962914;28;20039;-75
2023/12/12 12:15:01;;;;;;;22.20;17.30;;;8.90;99.90;;;;;;4963152;28;20054;-76
2023/12/12 12:17:36;;;;;;;4.35;4.03;;;8.90;99.90;;;;;;4962533;28;20035;-76
2023/12/12 12:20:03;;;;;;;0.63;0.63;;;8.90;99.90;;;;;;4961678;28;20027;-76
2023/12/12 12:22:30;;;;;;;0.77;0.77;;;8.90;99.90;;;;;;4954704;28;20333;-76
2023/12/12 12:24:56;;;;;;;0.10;0.10;;;8.90;99.90;;;;;;4954057;28;20035;-76
2023/12/12 12:27:22;;;;;;;1.30;1.25;;;9.00;99.90;;;;;;4965532;28;20027;-75
2023/12/12 12:30:05;;;;;;;2.92;2.67;;;9.00;99.90;;;;;;4940845;28;20040;-76
2023/12/12 12:32:32;;;;;;;2.65;2.03;;;9.10;99.90;;;;;;4965021;28;20093;-76
2023/12/12 12:35:08;;;;;;;1.23;1.15;;;9.10;99.90;;;;;;4963904;28;20031;-76
2023/12/12 12:37:36;;;;;;;1.75;1.65;;;9.20;99.90;;;;;;4966605;28;20043;-76
2023/12/12 12:40:04;;;;;;;1.55;1.27;;;9.30;99.90;;;;;;4947256;28;20457;-76
2023/12/12 12:42:35;;;;;;;0.63;0.63;;;9.30;99.90;;;;;;4959842;28;20051;-76
2023/12/12 12:45:08;;;;;;;1.38;0.65;;;9.40;99.90;;;;;;4963337;28;20039;-76
2023/12/12 12:47:34;;;;;;;0.77;0.60;;;9.40;99.90;;;;;;4967622;28;20073;-76
2023/12/12 12:50:05;;;;;;;0.50;0.32;;;9.50;99.90;;;;;;4969291;28;20461;-76
2023/12/12 12:52:31;;;;;;;0.63;0.52;;;9.50;99.90;;;;;;4962708;28;20039;-76
2023/12/12 12:54:57;;;;;;;0.38;0.38;;;9.50;99.90;;;;;;4964719;28;20038;-77
2023/12/12 12:57:23;;;;;;;1.75;1.30;;;9.50;99.90;;;;;;4962503;28;20039;-76
2023/12/12 12:59:49;;;;;;;0.82;0.82;;;9.40;99.90;;;;;;4964656;28;20035;-78